createdAt,value
2022-08-17T00:01:52.300Z,47.48
2022-08-17T00:04:25.639Z,47.92
2022-08-17T00:06:55.277Z,47.67
2022-08-17T00:09:24.917Z,47.25
2022-08-17T00:12:41.356Z,47.09
2022-08-17T00:14:44.193Z,47.07
2022-08-17T00:17:13.765Z,47.07
2022-08-17T00:19:45.983Z,47.73
2022-08-17T00:22:34.399Z,47.43
2022-08-17T00:25:05.387Z,47.23
2022-08-17T00:27:34.969Z,47.50
2022-08-17T00:30:05.009Z,47.16
2022-08-17T00:33:15.777Z,47.47
2022-08-17T00:35:31.942Z,47.25
2022-08-17T00:38:01.538Z,47.74
2022-08-17T00:40:39.875Z,47.25
2022-08-17T00:43:19.164Z,47.28
2022-08-17T00:45:49.386Z,46.98
2022-08-17T00:48:29.188Z,47.57
2022-08-17T00:51:06.907Z,47.23
2022-08-17T00:53:38.631Z,47.59
2022-08-17T00:56:12.135Z,46.88
2022-08-17T00:58:42.118Z,47.06
2022-08-17T01:01:21.371Z,46.99
2022-08-17T01:03:52.150Z,47.03
2022-08-17T01:06:25.886Z,46.81
2022-08-17T01:08:57.528Z,46.31
2022-08-17T01:11:27.563Z,46.78
2022-08-17T01:13:57.178Z,46.80
2022-08-17T01:16:29.207Z,46.21
2022-08-17T01:19:01.614Z,46.80
2022-08-17T01:21:39.828Z,46.20
2022-08-17T01:24:12.629Z,46.51
2022-08-17T01:26:43.434Z,46.99
2022-08-17T01:29:13.839Z,46.76
2022-08-17T01:31:46.284Z,46.97
2022-08-17T01:34:18.247Z,46.68
2022-08-17T01:36:50.535Z,47.13
2022-08-17T01:39:31.661Z,47.16
2022-08-17T01:42:09.178Z,47.15
2022-08-17T01:44:39.915Z,47.22
2022-08-17T01:47:09.623Z,46.86
2022-08-17T01:49:39.321Z,47.47
2022-08-17T01:52:10.616Z,47.29
2022-08-17T01:54:44.759Z,47.42
2022-08-17T01:57:14.531Z,46.91
2022-08-17T01:59:44.161Z,47.34
2022-08-17T02:02:30.651Z,47.61
2022-08-17T02:05:00.796Z,47.53
2022-08-17T02:07:31.403Z,47.52
2022-08-17T02:10:03.630Z,47.61
2022-08-17T02:12:46.652Z,47.61
2022-08-17T02:15:16.505Z,47.39
2022-08-17T02:17:46.180Z,47.46
2022-08-17T02:20:16.737Z,47.16
2022-08-17T02:23:08.863Z,47.23
2022-08-17T02:25:42.501Z,46.84
2022-08-17T02:28:12.551Z,47.06
2022-08-17T02:30:59.407Z,47.08
2022-08-17T02:33:42.775Z,47.13
2022-08-17T02:36:14.683Z,47.50
2022-08-17T02:38:44.767Z,47.00
2022-08-17T02:41:16.960Z,47.66
2022-08-17T02:43:46.547Z,47.70
2022-08-17T02:46:16.174Z,46.93
2022-08-17T02:48:45.805Z,47.36
2022-08-17T02:51:15.409Z,47.35
2022-08-17T02:53:45.028Z,47.33
2022-08-17T02:56:17.345Z,47.02
2022-08-17T02:58:46.985Z,47.24
2022-08-17T03:01:16.657Z,47.40
2022-08-17T03:03:46.288Z,47.62
2022-08-17T03:06:16.712Z,47.10
2022-08-17T03:08:46.360Z,47.28
2022-08-17T03:11:18.572Z,47.30
2022-08-17T03:13:48.287Z,47.59
2022-08-17T03:16:18.995Z,47.26
2022-08-17T03:18:48.767Z,47.49
2022-08-17T03:21:18.413Z,47.59
2022-08-17T03:23:48.010Z,47.78
2022-08-17T03:26:29.737Z,47.93
2022-08-17T03:29:00.201Z,47.68
2022-08-17T03:31:29.797Z,48.00
2022-08-17T03:33:59.588Z,47.83
2022-08-17T03:36:29.718Z,48.04
2022-08-17T03:39:05.558Z,47.78
2022-08-17T03:41:37.850Z,48.20
2022-08-17T03:44:07.489Z,48.24
2022-08-17T03:46:49.551Z,48.15
2022-08-17T03:49:31.649Z,48.00
2022-08-17T03:52:13.839Z,48.31
2022-08-17T03:54:56.880Z,48.42
2022-08-17T03:57:29.890Z,47.95
2022-08-17T04:00:00.034Z,48.07
2022-08-17T04:02:32.515Z,48.14
2022-08-17T04:05:02.254Z,48.37
2022-08-17T04:07:33.669Z,48.49
2022-08-17T04:10:04.141Z,48.86
2022-08-17T04:12:46.946Z,48.82
2022-08-17T04:15:18.344Z,49.20
2022-08-17T04:17:47.956Z,48.90
2022-08-17T04:20:19.755Z,49.21
2022-08-17T04:22:59.686Z,49.00
2022-08-17T04:25:29.966Z,49.10
2022-08-17T04:28:02.808Z,49.29
2022-08-17T04:30:34.853Z,49.54
2022-08-17T04:33:08.749Z,49.40
2022-08-17T04:35:41.221Z,49.66
2022-08-17T04:38:13.093Z,49.34
2022-08-17T04:40:55.612Z,48.91
2022-08-17T04:43:29.106Z,49.09
2022-08-17T04:46:01.364Z,49.18
2022-08-17T04:48:36.963Z,48.92
2022-08-17T04:51:10.539Z,48.64
2022-08-17T04:53:41.356Z,48.36
2022-08-17T04:56:16.265Z,48.66
2022-08-17T04:58:51.236Z,48.14
2022-08-17T05:01:23.433Z,48.48
2022-08-17T05:03:54.245Z,48.06
2022-08-17T05:06:24.211Z,48.58
2022-08-17T05:08:54.300Z,47.92
2022-08-17T05:11:25.561Z,48.48
2022-08-17T05:13:58.895Z,48.34
2022-08-17T05:16:30.551Z,48.46
2022-08-17T05:19:02.603Z,48.43
2022-08-17T05:21:32.793Z,47.86
2022-08-17T05:24:03.783Z,48.15
2022-08-17T05:26:39.263Z,47.95
2022-08-17T05:29:13.857Z,47.53
2022-08-17T05:31:43.438Z,47.33
2022-08-17T05:34:13.021Z,46.93
2022-08-17T05:36:44.612Z,46.56
2022-08-17T05:39:17.443Z,46.79
2022-08-17T05:41:50.594Z,46.50
2022-08-17T05:44:22.804Z,46.46
2022-08-17T05:46:54.361Z,46.36
2022-08-17T05:49:29.015Z,46.54
2022-08-17T05:52:14.727Z,46.46
2022-08-17T05:54:58.278Z,46.55
2022-08-17T05:57:39.904Z,46.33
2022-08-17T06:00:30.699Z,46.09
2022-08-17T06:03:14.615Z,45.97
2022-08-17T06:05:54.076Z,46.02
2022-08-17T06:08:28.476Z,46.32
2022-08-17T06:11:02.371Z,46.09
2022-08-17T06:13:45.238Z,46.33
2022-08-17T06:16:33.497Z,46.19
2022-08-17T06:19:08.658Z,45.78
2022-08-17T06:21:40.974Z,45.56
2022-08-17T06:24:22.111Z,45.70
2022-08-17T06:26:51.926Z,45.94
2022-08-17T06:29:33.560Z,45.82
2022-08-17T06:32:06.821Z,45.90
2022-08-17T06:34:37.458Z,46.28
2022-08-17T06:37:14.921Z,46.08
2022-08-17T06:39:51.184Z,46.37
2022-08-17T06:43:02.597Z,46.51
2022-08-17T06:45:22.870Z,45.92
2022-08-17T06:47:58.662Z,45.88
2022-08-17T06:50:33.163Z,46.12
2022-08-17T06:53:10.012Z,46.27
2022-08-17T06:55:46.770Z,46.05
2022-08-17T06:58:17.999Z,45.84
2022-08-17T07:00:49.804Z,45.61
2022-08-17T07:03:31.775Z,45.40
2022-08-17T07:06:05.706Z,45.41
2022-08-17T07:08:45.375Z,45.29
2022-08-17T07:11:17.216Z,45.14
2022-08-17T07:13:51.770Z,44.84
2022-08-17T07:16:25.494Z,44.37
2022-08-17T07:18:57.803Z,43.86
2022-08-17T07:21:40.929Z,44.04
2022-08-17T07:24:29.805Z,44.17
2022-08-17T07:27:12.536Z,44.08
2022-08-17T07:29:48.895Z,44.31
2022-08-17T07:32:23.367Z,44.47
2022-08-17T07:35:22.087Z,44.50
2022-08-17T07:37:56.050Z,45.05
2022-08-17T07:40:33.515Z,45.42
2022-08-17T07:43:22.005Z,45.21
2022-08-17T07:46:20.312Z,44.63
2022-08-17T07:48:52.418Z,44.77
2022-08-17T07:51:33.454Z,44.49
2022-08-17T07:54:14.476Z,44.18
2022-08-17T07:56:47.096Z,44.24
2022-08-17T07:59:23.366Z,44.05
2022-08-17T08:02:06.804Z,44.22
2022-08-17T08:07:38.854Z,44.13
2022-08-17T08:10:12.282Z,44.48
2022-08-17T08:12:42.213Z,44.29
2022-08-17T08:15:19.037Z,44.64
2022-08-17T08:17:52.750Z,44.61
2022-08-17T08:20:52.168Z,44.33
2022-08-17T08:23:33.783Z,45.03
2022-08-17T08:26:18.781Z,44.77
2022-08-17T08:28:54.649Z,44.64
2022-08-17T08:31:45.650Z,44.30
2022-08-17T08:35:00.178Z,44.15
2022-08-17T08:37:25.134Z,44.63
2022-08-17T08:40:11.494Z,44.76
2022-08-17T08:42:48.956Z,44.83
2022-08-17T08:45:24.754Z,45.10
2022-08-17T08:48:05.925Z,45.18
2022-08-17T08:50:43.048Z,45.45
2022-08-17T08:53:23.517Z,45.67
2022-08-17T08:56:02.493Z,45.63
2022-08-17T08:58:41.978Z,46.34
2022-08-17T09:01:19.098Z,46.71
2022-08-17T09:04:19.673Z,46.58
2022-08-17T09:06:59.796Z,46.54
2022-08-17T09:09:38.989Z,46.71
2022-08-17T09:12:16.857Z,47.25
2022-08-17T09:14:52.466Z,46.91
2022-08-17T09:17:27.900Z,47.16
2022-08-17T09:20:00.812Z,47.26
2022-08-17T09:22:33.473Z,47.67
2022-08-17T09:25:09.949Z,47.91
2022-08-17T09:28:00.641Z,48.47
2022-08-17T09:30:36.376Z,48.27
2022-08-17T09:33:10.050Z,48.56
2022-08-17T09:35:41.671Z,48.38
2022-08-17T09:38:21.392Z,48.26
2022-08-17T09:40:56.034Z,48.10
2022-08-17T09:43:40.672Z,48.61
2022-08-17T09:46:14.220Z,48.62
2022-08-17T09:48:44.658Z,48.37
2022-08-17T09:51:18.515Z,48.31
2022-08-17T09:53:49.766Z,48.72
2022-08-17T09:56:31.860Z,49.20
2022-08-17T09:59:36.542Z,48.74
2022-08-17T10:02:29.885Z,49.27
2022-08-17T10:05:05.460Z,49.38
2022-08-17T10:07:38.263Z,49.61
2022-08-17T10:10:15.100Z,49.97
2022-08-17T10:12:53.140Z,49.76
2022-08-17T10:15:33.938Z,50.29
2022-08-17T10:18:13.754Z,50.08
2022-08-17T10:20:50.368Z,50.63
2022-08-17T10:23:39.190Z,50.79
2022-08-17T10:26:18.792Z,50.69
2022-08-17T10:28:52.722Z,50.72
2022-08-17T10:31:35.518Z,50.58
2022-08-17T10:34:27.278Z,51.18
2022-08-17T10:37:03.373Z,51.10
2022-08-17T10:39:51.960Z,51.15
2022-08-17T10:42:30.799Z,51.14
2022-08-17T10:45:06.467Z,51.28
2022-08-17T10:48:06.344Z,51.62
2022-08-17T10:50:49.790Z,51.96
2022-08-17T10:53:49.452Z,52.04
2022-08-17T10:56:24.941Z,51.77
2022-08-17T10:58:57.259Z,51.73
2022-08-17T11:02:05.359Z,52.27
2022-08-17T11:04:50.005Z,51.85
2022-08-17T11:07:28.260Z,51.30
2022-08-17T11:10:12.444Z,50.98
2022-08-17T11:12:49.276Z,50.83
2022-08-17T11:15:28.022Z,49.91
2022-08-17T11:18:24.854Z,49.11
2022-08-17T11:21:29.671Z,48.63
2022-08-17T11:24:18.418Z,47.23
2022-08-17T11:27:02.090Z,46.54
2022-08-17T11:29:32.939Z,45.89
2022-08-17T11:32:11.561Z,45.51
2022-08-17T11:34:41.818Z,44.54
2022-08-17T11:37:34.642Z,44.09
2022-08-17T11:40:25.998Z,43.97
2022-08-17T11:43:27.200Z,43.72
2022-08-17T11:46:06.460Z,43.68
2022-08-17T11:48:53.194Z,43.91
2022-08-17T11:51:37.512Z,44.60
2022-08-17T11:54:32.220Z,44.53
2022-08-17T11:57:03.435Z,44.57
2022-08-17T11:59:58.874Z,44.20
2022-08-17T12:02:38.991Z,43.46
2022-08-17T12:05:31.026Z,43.21
2022-08-17T12:08:10.783Z,42.82
2022-08-17T12:11:08.156Z,42.50
2022-08-17T12:13:41.452Z,42.71
2022-08-17T12:16:10.842Z,42.38
2022-08-17T12:18:41.933Z,42.86
2022-08-17T12:21:20.861Z,42.59
2022-08-17T12:23:57.900Z,42.17
2022-08-17T12:26:33.075Z,41.82
2022-08-17T12:29:04.538Z,41.47
2022-08-17T12:31:38.459Z,40.98
2022-08-17T12:34:07.884Z,41.03
2022-08-17T12:36:38.283Z,40.95
2022-08-17T12:39:14.011Z,41.77
2022-08-17T12:41:50.448Z,41.72
2022-08-17T12:44:22.525Z,42.22
2022-08-17T12:46:58.838Z,42.61
2022-08-17T12:49:35.537Z,42.83
2022-08-17T12:52:09.751Z,43.50
2022-08-17T12:54:45.074Z,43.77
2022-08-17T12:57:20.009Z,44.09
2022-08-17T12:59:54.371Z,44.48
2022-08-17T13:02:40.030Z,44.35
2022-08-17T13:05:12.741Z,44.80
2022-08-17T13:07:46.502Z,44.85
2022-08-17T13:10:21.849Z,45.09
2022-08-17T13:12:54.545Z,44.88
2022-08-17T13:15:29.608Z,44.97
2022-08-17T13:18:03.909Z,44.88
2022-08-17T13:20:34.141Z,45.07
2022-08-17T13:23:11.945Z,44.65
2022-08-17T13:25:42.379Z,44.60
2022-08-17T13:28:35.548Z,45.18
2022-08-17T13:31:24.158Z,44.63
2022-08-17T13:33:53.844Z,44.54
2022-08-17T13:36:29.096Z,44.31
2022-08-17T13:39:10.059Z,44.28
2022-08-17T13:41:40.609Z,44.24
2022-08-17T13:44:39.210Z,43.55
2022-08-17T13:47:17.935Z,43.37
2022-08-17T13:49:49.483Z,43.59
2022-08-17T13:52:38.469Z,43.73
2022-08-17T13:55:10.716Z,43.69
2022-08-17T13:57:40.418Z,44.55
2022-08-17T14:00:18.995Z,44.59
2022-08-17T14:02:48.601Z,44.55
2022-08-17T14:05:18.502Z,44.21
2022-08-17T14:07:48.120Z,43.94
2022-08-17T14:10:20.272Z,44.38
2022-08-17T14:12:50.259Z,44.84
2022-08-17T14:15:24.850Z,45.21
2022-08-17T14:18:14.470Z,45.77
2022-08-17T14:20:44.261Z,45.82
2022-08-17T14:23:14.528Z,46.27
2022-08-17T14:25:45.816Z,46.82
2022-08-17T14:28:15.559Z,47.23
2022-08-17T14:30:47.864Z,47.65
2022-08-17T14:33:22.544Z,47.85
2022-08-17T14:35:53.534Z,47.56
2022-08-17T14:38:23.588Z,47.99
2022-08-17T14:40:53.529Z,47.41
2022-08-17T14:43:23.282Z,47.13
2022-08-17T14:45:55.509Z,46.75
2022-08-17T14:48:25.471Z,46.87
2022-08-17T14:50:56.597Z,46.60
2022-08-17T14:53:26.233Z,46.53
2022-08-17T14:55:58.883Z,46.74
2022-08-17T14:58:29.601Z,46.42
2022-08-17T15:01:02.052Z,46.89
2022-08-17T15:03:31.805Z,47.02
2022-08-17T15:06:02.793Z,47.40
2022-08-17T15:08:32.934Z,47.29
2022-08-17T15:11:04.669Z,47.30
2022-08-17T15:13:34.304Z,48.05
2022-08-17T15:16:08.594Z,48.41
2022-08-17T15:18:41.100Z,48.40
2022-08-17T15:21:12.504Z,48.90
2022-08-17T15:23:43.609Z,49.38
2022-08-17T15:26:14.208Z,49.55
2022-08-17T15:28:43.822Z,49.69
2022-08-17T15:31:32.121Z,50.40
2022-08-17T15:34:02.765Z,50.23
2022-08-17T15:36:32.461Z,50.08
2022-08-17T15:39:03.201Z,50.09
2022-08-17T15:41:33.115Z,49.92
2022-08-17T15:44:02.921Z,50.32
2022-08-17T15:46:35.584Z,50.05
2022-08-17T15:49:06.354Z,50.00
2022-08-17T15:51:37.899Z,49.94
2022-08-17T15:54:18.767Z,50.04
2022-08-17T15:56:51.879Z,50.09
2022-08-17T15:59:21.564Z,50.19
2022-08-17T16:03:44.451Z,50.58
2022-08-17T16:04:45.326Z,50.35
2022-08-17T16:07:21.870Z,50.39
2022-08-17T16:09:54.060Z,50.30
2022-08-17T16:12:24.545Z,50.24
2022-08-17T16:14:54.497Z,50.56
2022-08-17T16:17:40.066Z,50.25
2022-08-17T16:20:20.898Z,50.69
2022-08-17T16:22:52.184Z,50.76
2022-08-17T16:25:52.169Z,50.78
2022-08-17T16:28:14.010Z,51.07
2022-08-17T16:30:44.084Z,51.26
2022-08-17T16:33:18.617Z,51.19
2022-08-17T16:35:48.246Z,50.99
2022-08-17T16:38:18.554Z,50.97
2022-08-17T16:40:48.176Z,50.56
2022-08-17T16:43:17.768Z,51.02
2022-08-17T16:45:51.854Z,51.10
2022-08-17T16:48:24.548Z,51.72
2022-08-17T16:51:03.265Z,51.30
2022-08-17T16:53:34.557Z,51.80
2022-08-17T16:56:05.139Z,52.20
2022-08-17T16:58:34.985Z,52.50
2022-08-17T17:01:05.015Z,52.74
2022-08-17T17:03:37.669Z,52.42
2022-08-17T17:06:13.666Z,53.09
2022-08-17T17:08:46.724Z,53.00
2022-08-17T17:11:18.327Z,53.10
2022-08-17T17:13:51.814Z,53.17
2022-08-17T17:16:24.110Z,53.41
2022-08-17T17:19:06.997Z,53.31
2022-08-17T17:21:42.978Z,53.36
2022-08-17T17:24:17.446Z,53.61
2022-08-17T17:26:57.207Z,54.04
2022-08-17T17:29:47.615Z,53.96
2022-08-17T17:32:22.267Z,54.24
2022-08-17T17:34:58.809Z,54.47
2022-08-17T17:37:34.154Z,55.12
2022-08-17T17:40:09.478Z,55.28
2022-08-17T17:42:42.761Z,55.39
2022-08-17T17:45:18.508Z,56.19
2022-08-17T17:47:48.717Z,55.90
2022-08-17T17:50:23.249Z,56.77
2022-08-17T17:53:02.165Z,57.00
2022-08-17T17:55:47.186Z,57.39
2022-08-17T17:58:28.302Z,57.31
2022-08-17T18:01:17.300Z,57.55
2022-08-17T18:03:58.942Z,58.23
2022-08-17T18:06:37.086Z,58.33
2022-08-17T18:09:18.013Z,58.53
2022-08-17T18:12:06.524Z,58.22
2022-08-17T18:14:49.499Z,58.97
2022-08-17T18:17:20.321Z,58.93
2022-08-17T18:19:50.160Z,58.93
2022-08-17T18:22:24.058Z,59.36
2022-08-17T18:24:56.465Z,59.65
2022-08-17T18:27:31.480Z,59.98
2022-08-17T18:30:05.850Z,60.03
2022-08-17T18:32:41.461Z,60.01
2022-08-17T18:35:30.365Z,60.64
2022-08-17T18:38:23.338Z,61.04
2022-08-17T18:41:02.275Z,61.20
2022-08-17T18:43:44.251Z,61.06
2022-08-17T18:46:29.987Z,61.67
2022-08-17T18:49:02.188Z,62.00
2022-08-17T18:51:40.557Z,62.35
2022-08-17T18:54:23.709Z,62.75
2022-08-17T18:56:55.970Z,62.99
2022-08-17T18:59:29.597Z,62.93
2022-08-17T19:02:37.276Z,63.78
2022-08-17T19:05:14.226Z,63.21
2022-08-17T19:07:45.620Z,63.54
2022-08-17T19:10:28.788Z,64.22
2022-08-17T19:13:01.122Z,64.11
2022-08-17T19:15:36.753Z,64.45
2022-08-17T19:18:15.247Z,64.82
2022-08-17T19:20:48.608Z,64.93
2022-08-17T19:23:21.527Z,65.02
2022-08-17T19:25:58.429Z,65.50
2022-08-17T19:28:31.167Z,65.54
2022-08-17T19:31:03.556Z,65.80
2022-08-17T19:33:34.059Z,65.97
2022-08-17T19:36:09.158Z,66.54
2022-08-17T19:38:45.411Z,66.66
2022-08-17T19:41:23.282Z,66.87
2022-08-17T19:44:29.611Z,66.84
2022-08-17T19:47:06.100Z,66.88
2022-08-17T19:49:45.658Z,67.27
2022-08-17T19:52:34.553Z,67.52
2022-08-17T19:55:08.746Z,67.17
2022-08-17T19:57:46.930Z,67.89
2022-08-17T20:00:18.892Z,68.05
2022-08-17T20:02:53.970Z,67.99
2022-08-17T20:05:27.118Z,68.30
2022-08-17T20:07:59.642Z,68.73
2022-08-17T20:10:34.811Z,68.23
2022-08-17T20:13:11.888Z,68.73
2022-08-17T20:15:44.567Z,68.98
2022-08-17T20:18:21.182Z,69.42
2022-08-17T20:20:57.502Z,69.79
2022-08-17T20:23:42.342Z,69.77
2022-08-17T20:26:30.654Z,69.87
2022-08-17T20:29:36.801Z,70.07
2022-08-17T20:32:18.182Z,69.95
2022-08-17T20:34:49.425Z,69.87
2022-08-17T20:37:32.007Z,70.38
2022-08-17T20:40:20.624Z,70.91
2022-08-17T20:42:50.551Z,71.25
2022-08-17T20:45:52.715Z,71.30
2022-08-17T20:48:37.356Z,71.74
2022-08-17T20:51:29.889Z,72.26
2022-08-17T20:54:06.902Z,71.98
2022-08-17T20:56:51.771Z,72.51
2022-08-17T20:59:52.310Z,72.46
2022-08-17T21:02:27.603Z,72.43
2022-08-17T21:05:17.471Z,72.74
2022-08-17T21:07:58.697Z,72.36
2022-08-17T21:10:36.826Z,72.54
2022-08-17T21:13:39.268Z,73.31
2022-08-17T21:16:24.277Z,73.40
2022-08-17T21:19:07.568Z,73.41
2022-08-17T21:21:43.938Z,73.82
2022-08-17T21:24:28.645Z,73.59
2022-08-17T21:27:08.384Z,73.93
2022-08-17T21:29:54.611Z,74.26
2022-08-17T21:32:31.422Z,74.50
2022-08-17T21:35:30.135Z,75.12
2022-08-17T21:38:05.255Z,75.04
2022-08-17T21:40:36.450Z,75.25
2022-08-17T21:43:18.106Z,75.20
2022-08-17T21:45:58.719Z,75.17
2022-08-17T21:48:29.703Z,75.63
2022-08-17T21:51:11.009Z,75.94
2022-08-17T21:53:46.391Z,75.88
2022-08-17T21:56:24.348Z,76.17
2022-08-17T21:58:59.155Z,76.33
2022-08-17T22:01:31.673Z,76.42
2022-08-17T22:04:05.057Z,76.47
2022-08-17T22:06:41.806Z,76.32
2022-08-17T22:09:18.456Z,76.96
2022-08-17T22:12:04.025Z,77.19
2022-08-17T22:14:52.629Z,76.89
2022-08-17T22:17:25.466Z,77.26
2022-08-17T22:19:58.098Z,77.25
2022-08-17T22:23:02.533Z,77.53
2022-08-17T22:25:31.156Z,77.04
2022-08-17T22:28:02.406Z,77.04
2022-08-17T22:30:35.882Z,76.88
2022-08-17T22:33:32.429Z,77.30
2022-08-17T22:36:13.584Z,77.36
2022-08-17T22:38:45.805Z,77.76
2022-08-17T22:41:40.523Z,77.69
2022-08-17T22:44:18.009Z,78.29
2022-08-17T22:46:55.343Z,78.13
2022-08-17T22:49:29.205Z,78.63
2022-08-17T22:52:06.389Z,78.39
2022-08-17T22:54:51.151Z,78.15
2022-08-17T22:57:33.606Z,78.63
2022-08-17T23:00:03.383Z,78.78
2022-08-17T23:02:34.828Z,78.93
2022-08-17T23:05:22.853Z,79.23
2022-08-17T23:07:54.854Z,79.69
2022-08-17T23:10:27.087Z,79.79
2022-08-17T23:12:57.017Z,79.73
2022-08-17T23:15:32.824Z,79.56
2022-08-17T23:18:05.377Z,80.13
2022-08-17T23:20:37.231Z,80.09
2022-08-17T23:23:07.314Z,80.08
2022-08-17T23:25:39.761Z,80.01
2022-08-17T23:28:11.370Z,80.13
2022-08-17T23:30:43.350Z,79.74
2022-08-17T23:33:24.438Z,79.71
2022-08-17T23:35:54.246Z,79.69
2022-08-17T23:38:25.450Z,79.57
2022-08-17T23:40:59.939Z,79.89
2022-08-17T23:43:31.424Z,79.66
2022-08-17T23:46:03.644Z,79.53
2022-08-17T23:48:36.926Z,79.81
2022-08-17T23:51:09.623Z,80.15
2022-08-17T23:53:42.526Z,80.51
2022-08-17T23:56:15.119Z,80.69
2022-08-17T23:58:46.353Z,80.54
